Time;durP1;ratioP1;P1;durP2;ratioP2;P2;SDS_P1;SDS_P2;PMS_P1;PMS_P2;Temp;Humidity;BMP_temperature;BMP_pressure;BME280_temperature;BME280_humidity;BME280_pressure;Samples;Min_cycle;Max_cycle;Signal;HPM_P1;HPM_P2
2023/05/28 03:16:13;;;;;;;7.15;2.38;;;14.20;81.30;;;;;;6160267;22;94072;-76
2023/05/28 03:18:39;;;;;;;7.10;2.58;;;14.20;81.40;;;;;;6251645;22;93624;-77
2023/05/28 03:21:04;;;;;;;8.43;2.92;;;14.20;81.90;;;;;;6280126;22;92337;-78
2023/05/28 03:23:30;;;;;;;6.53;2.88;;;14.10;81.60;;;;;;6280147;22;93131;-77
2023/05/28 03:25:56;;;;;;;8.27;2.63;;;14.10;81.50;;;;;;6280411;22;92009;-77
2023/05/28 03:28:21;;;;;;;10.95;2.67;;;14.10;81.60;;;;;;6281291;22;92172;-76
2023/05/28 03:30:47;;;;;;;7.50;2.45;;;14.10;81.90;;;;;;6253053;22;92282;-77
2023/05/28 03:33:13;;;;;;;9.48;2.88;;;14.10;82.30;;;;;;6280011;22;93533;-75
2023/05/28 03:35:38;;;;;;;8.93;3.05;;;14.10;81.90;;;;;;6280568;22;92799;-76
2023/05/28 03:38:04;;;;;;;7.22;2.45;;;14.10;81.70;;;;;;6280662;22;92457;-77
2023/05/28 03:40:30;;;;;;;8.13;2.90;;;14.10;81.60;;;;;;6254295;22;92183;-76
2023/05/28 03:42:56;;;;;;;7.90;2.38;;;14.10;81.30;;;;;;6279738;22;93481;-75
2023/05/28 03:45:22;;;;;;;7.63;2.75;;;14.20;83.10;;;;;;6278097;22;94430;-76
2023/05/28 03:47:47;;;;;;;9.32;3.55;;;14.20;82.90;;;;;;6280903;22;92434;-76
2023/05/28 03:50:13;;;;;;;7.68;3.15;;;14.10;83.30;;;;;;6254279;22;92511;-76
2023/05/28 03:52:39;;;;;;;7.93;2.63;;;14.10;82.60;;;;;;6279950;22;93058;-77
2023/05/28 03:55:05;;;;;;;10.98;3.10;;;14.10;82.60;;;;;;6280374;22;92706;-77
2023/05/28 03:57:31;;;;;;;5.68;2.97;;;14.20;82.60;;;;;;6279504;22;91985;-76
2023/05/28 03:59:57;;;;;;;6.75;2.70;;;14.30;83.30;;;;;;6281039;22;91613;-76
2023/05/28 04:02:23;;;;;;;7.78;2.50;;;14.40;82.20;;;;;;6276849;22;92547;-76
2023/05/28 04:04:49;;;;;;;8.18;2.90;;;14.50;82.00;;;;;;6280940;22;93002;-77
2023/05/28 04:07:14;;;;;;;7.20;2.72;;;14.70;80.80;;;;;;6281214;22;92946;-77
2023/05/28 04:09:40;;;;;;;6.80;2.47;;;14.90;80.30;;;;;;6281321;22;94087;-76
2023/05/28 04:12:06;;;;;;;7.60;2.78;;;15.10;79.50;;;;;;6280396;22;93312;-76
2023/05/28 04:14:32;;;;;;;8.93;2.88;;;15.30;79.10;;;;;;6281455;22;92225;-76
2023/05/28 04:16:57;;;;;;;10.23;2.95;;;15.50;78.30;;;;;;6266061;22;92174;-78
2023/05/28 04:19:23;;;;;;;11.70;2.33;;;15.70;77.60;;;;;;6250941;22;92125;-77
2023/05/28 04:21:49;;;;;;;7.43;2.70;;;16.00;76.60;;;;;;6248762;22;92750;-76
2023/05/28 04:24:15;;;;;;;5.55;2.22;;;16.40;75.90;;;;;;6223423;22;94805;-78
2023/05/28 04:26:41;;;;;;;7.80;2.80;;;16.70;74.70;;;;;;6249384;22;92229;-79
2023/05/28 04:29:07;;;;;;;7.32;2.63;;;17.00;73.90;;;;;;6250131;22;92051;-79
2023/05/28 04:31:32;;;;;;;8.98;2.70;;;17.30;73.00;;;;;;6249157;22;93758;-76
2023/05/28 04:33:58;;;;;;;7.35;2.20;;;17.70;72.20;;;;;;6245360;22;94146;-76
2023/05/28 04:36:33;;;;;;;9.68;2.47;;;18.00;71.20;;;;;;6249953;22;92192;-76
2023/05/28 04:39:01;;;;;;;8.43;2.50;;;18.40;69.50;;;;;;6249696;22;91980;-77
2023/05/28 04:41:27;;;;;;;9.55;2.40;;;18.70;67.40;;;;;;6249076;22;93155;-77
2023/05/28 04:43:52;;;;;;;7.50;2.40;;;19.00;66.90;;;;;;6249643;22;92684;-77
2023/05/28 04:46:18;;;;;;;8.82;2.65;;;19.50;65.80;;;;;;6248971;22;92559;-77
2023/05/28 04:48:45;;;;;;;6.82;2.60;;;19.60;64.80;;;;;;6248477;22;91350;-77
2023/05/28 04:51:11;;;;;;;9.43;2.63;;;19.90;64.40;;;;;;6248960;22;92573;-77
2023/05/28 04:53:37;;;;;;;6.07;2.35;;;20.30;63.80;;;;;;6249721;22;92691;-78
2023/05/28 04:56:03;;;;;;;8.93;2.30;;;20.90;62.10;;;;;;6248834;22;92993;-81
2023/05/28 04:58:29;;;;;;;6.07;2.30;;;21.20;60.50;;;;;;6250184;22;92116;-81
2023/05/28 05:00:55;;;;;;;6.78;2.40;;;21.40;60.50;;;;;;6249405;22;93462;-77
2023/05/28 05:03:21;;;;;;;5.90;2.05;;;21.70;60.30;;;;;;6246802;22;92919;-78
2023/05/28 05:05:47;;;;;;;6.55;2.45;;;22.10;59.70;;;;;;6249612;22;91979;-80
2023/05/28 05:08:13;;;;;;;8.40;3.00;;;22.50;58.20;;;;;;6250561;22;92000;-80
2023/05/28 05:10:39;;;;;;;8.60;2.75;;;22.70;57.40;;;;;;6249042;22;92825;-80
2023/05/28 05:13:05;;;;;;;7.70;3.00;;;22.90;56.40;;;;;;6248506;22;92746;-80
2023/05/28 05:15:32;;;;;;;9.27;2.67;;;23.30;56.40;;;;;;6249125;22;92257;-78
2023/05/28 05:17:58;;;;;;;6.20;2.90;;;23.50;56.30;;;;;;6249023;22;92096;-79
2023/05/28 05:20:24;;;;;;;8.68;3.03;;;24.10;54.40;;;;;;6244969;22;94351;-79
2023/05/28 05:22:50;;;;;;;9.65;2.92;;;24.70;53.40;;;;;;6249000;22;93078;-80
2023/05/28 05:25:15;;;;;;;7.95;2.75;;;25.00;52.90;;;;;;6249294;22;92254;-80
2023/05/28 05:27:42;;;;;;;7.93;3.47;;;25.20;51.30;;;;;;6249194;22;92455;-81
2023/05/28 05:30:08;;;;;;;8.35;2.92;;;25.50;51.60;;;;;;6248881;22;93248;-81
2023/05/28 05:32:34;;;;;;;9.48;2.67;;;25.80;50.90;;;;;;6249180;22;93471;-81
2023/05/28 05:35:01;;;;;;;8.52;2.75;;;26.30;50.40;;;;;;6247220;22;92401;-82
2023/05/28 05:37:28;;;;;;;6.03;2.25;;;26.70;49.00;;;;;;6249578;22;91270;-84
2023/05/28 05:39:54;;;;;;;8.68;2.95;;;27.00;49.70;;;;;;6248957;22;93093;-80
2023/05/28 05:42:19;;;;;;;5.90;2.15;;;27.10;47.90;;;;;;6249190;22;92850;-80
2023/05/28 05:44:46;;;;;;;6.53;2.42;;;27.00;48.90;;;;;;6248718;22;93321;-76
2023/05/28 05:47:11;;;;;;;10.38;3.40;;;27.10;47.60;;;;;;6249594;22;91934;-77
2023/05/28 05:49:37;;;;;;;8.38;2.88;;;26.90;47.60;;;;;;6249776;22;92401;-77
2023/05/28 05:52:03;;;;;;;6.22;2.80;;;27.30;48.10;;;;;;6248016;22;93176;-78
2023/05/28 05:54:29;;;;;;;9.18;3.10;;;28.20;46.90;;;;;;6248828;22;92528;-76
2023/05/28 05:56:54;;;;;;;7.07;2.88;;;28.50;46.20;;;;;;6250371;22;91960;-77
2023/05/28 05:59:20;;;;;;;7.78;3.03;;;28.70;46.10;;;;;;6250063;22;93256;-78
2023/05/28 06:01:45;;;;;;;7.95;3.17;;;29.00;45.60;;;;;;6251072;22;92753;-79
2023/05/28 06:04:11;;;;;;;9.90;3.20;;;29.20;45.10;;;;;;6251135;22;92036;-81
2023/05/28 06:06:38;;;;;;;7.70;3.20;;;29.40;45.10;;;;;;6247543;22;92568;-83
2023/05/28 06:09:04;;;;;;;9.43;2.60;;;29.50;44.10;;;;;;6247809;22;94656;-80
2023/05/28 06:11:30;;;;;;;7.03;3.13;;;29.60;44.80;;;;;;6249109;22;93646;-79
2023/05/28 06:13:56;;;;;;;7.20;2.95;;;30.10;43.70;;;;;;6249477;22;92257;-79
2023/05/28 06:16:22;;;;;;;6.72;3.08;;;30.80;43.10;;;;;;6250793;22;92289;-83
2023/05/28 06:18:47;;;;;;;10.95;2.95;;;31.10;42.70;;;;;;6249946;22;93681;-84
2023/05/28 06:21:13;;;;;;;9.90;4.40;;;31.50;42.50;;;;;;6247940;22;93513;-82
2023/05/28 06:23:39;;;;;;;6.90;3.13;;;31.80;41.50;;;;;;6222046;22;92380;-81
2023/05/28 06:26:05;;;;;;;8.13;3.90;;;31.80;40.80;;;;;;6250228;22;91255;-79
2023/05/28 06:28:31;;;;;;;9.50;4.38;;;31.70;40.90;;;;;;6249185;22;92516;-79
2023/05/28 06:30:57;;;;;;;9.68;3.97;;;32.00;42.00;;;;;;6249549;22;92863;-81
2023/05/28 06:33:22;;;;;;;9.50;3.60;;;32.30;40.50;;;;;;6246939;22;93187;-82
2023/05/28 06:35:48;;;;;;;8.55;3.28;;;32.50;40.40;;;;;;6248479;22;92278;-81
2023/05/28 06:38:14;;;;;;;7.22;3.03;;;32.30;41.20;;;;;;6245461;22;93499;-81
2023/05/28 06:40:39;;;;;;;6.25;3.47;;;32.30;39.90;;;;;;6248862;22;91995;-81
2023/05/28 06:43:05;;;;;;;7.38;3.75;;;32.70;40.10;;;;;;6222422;22;92007;-81
2023/05/28 06:45:32;;;;;;;7.60;3.40;;;33.20;39.90;;;;;;6247473;22;92679;-81
2023/05/28 06:47:58;;;;;;;9.73;4.03;;;33.30;39.20;;;;;;6247594;22;93269;-81
2023/05/28 06:50:24;;;;;;;6.47;3.25;;;33.20;39.50;;;;;;6246701;22;92043;-82
2023/05/28 06:52:50;;;;;;;5.80;3.20;;;33.30;39.40;;;;;;6239183;22;92721;-81
2023/05/28 06:55:17;;;;;;;5.63;3.35;;;33.50;39.70;;;;;;6241140;22;92546;-82
2023/05/28 06:57:44;;;;;;;7.63;4.80;;;33.90;39.50;;;;;;6217844;22;96984;-81
2023/05/28 07:00:14;;;;;;;8.43;4.00;;;34.30;38.40;;;;;;6246565;22;94043;-82
2023/05/28 07:02:40;;;;;;;6.90;3.75;;;34.80;37.70;;;;;;6243083;22;92131;-82
2023/05/28 07:05:06;;;;;;;7.50;3.95;;;35.10;36.50;;;;;;6242779;22;92542;-82
2023/05/28 07:07:32;;;;;;;8.68;3.65;;;35.10;37.60;;;;;;6237033;22;93127;-82
2023/05/28 07:09:58;;;;;;;7.35;3.72;;;35.40;37.20;;;;;;6236846;22;92632;-82
2023/05/28 07:12:23;;;;;;;10.32;3.80;;;35.60;36.00;;;;;;6241192;22;92458;-82
2023/05/28 07:14:49;;;;;;;9.50;4.13;;;35.30;36.60;;;;;;6245740;22;91574;-82
2023/05/28 07:17:15;;;;;;;9.70;3.63;;;35.50;36.70;;;;;;6246609;22;93062;-82
2023/05/28 07:19:41;;;;;;;9.13;3.92;;;35.50;37.50;;;;;;6249295;22;92840;-81
2023/05/28 07:22:06;;;;;;;7.25;3.35;;;35.70;35.90;;;;;;6248419;22;93025;-82
2023/05/28 07:24:32;;;;;;;7.05;4.13;;;35.60;35.80;;;;;;6244650;22;92340;-82
2023/05/28 07:26:57;;;;;;;8.52;3.53;;;35.50;36.70;;;;;;6245980;22;93096;-82
2023/05/28 07:29:23;;;;;;;7.63;3.35;;;35.40;36.80;;;;;;6246178;22;92948;-82
2023/05/28 07:31:49;;;;;;;7.88;4.68;;;35.30;37.60;;;;;;6246410;22;92533;-83
2023/05/28 07:34:15;;;;;;;7.60;3.70;;;35.80;36.50;;;;;;6246036;22;92473;-82
2023/05/28 07:36:41;;;;;;;8.30;4.03;;;36.50;35.50;;;;;;6246867;22;92967;-83
2023/05/28 07:39:07;;;;;;;7.45;4.45;;;37.10;35.20;;;;;;6246676;22;92441;-85
2023/05/28 07:41:34;;;;;;;7.07;4.22;;;37.30;36.80;;;;;;6243703;22;92899;-83
2023/05/28 07:43:59;;;;;;;6.30;3.33;;;37.00;35.40;;;;;;6247571;22;92636;-83
2023/05/28 07:46:25;;;;;;;7.07;4.47;;;37.20;35.30;;;;;;6246653;22;94021;-84
2023/05/28 07:48:51;;;;;;;8.10;4.55;;;37.20;34.90;;;;;;6246962;22;94116;-83
2023/05/28 07:51:17;;;;;;;9.55;4.05;;;37.50;34.60;;;;;;6246666;22;92341;-84
2023/05/28 07:53:43;;;;;;;12.25;5.63;;;37.50;35.30;;;;;;6248687;22;92070;-84
2023/05/28 07:56:09;;;;;;;6.80;4.35;;;37.50;33.80;;;;;;6243832;22;92634;-83
2023/05/28 07:58:35;;;;;;;7.97;4.47;;;37.80;34.10;;;;;;6246754;22;93405;-84
2023/05/28 08:01:01;;;;;;;8.73;3.90;;;38.10;34.60;;;;;;6247690;22;92779;-84
2023/05/28 08:03:27;;;;;;;11.20;5.10;;;37.80;33.30;;;;;;6246720;22;91395;-85
2023/05/28 08:05:54;;;;;;;9.25;4.63;;;37.80;34.00;;;;;;6246482;22;92635;-88
2023/05/28 08:08:19;;;;;;;8.30;4.22;;;38.40;34.50;;;;;;6245628;22;92179;-85
2023/05/28 08:10:45;;;;;;;6.93;4.47;;;38.30;33.30;;;;;;6244446;22;93450;-84
2023/05/28 08:13:11;;;;;;;9.68;5.40;;;38.80;33.40;;;;;;6243762;22;92349;-83
2023/05/28 08:15:37;;;;;;;5.82;3.58;;;39.00;32.40;;;;;;6244632;22;92663;-86
2023/05/28 08:18:03;;;;;;;8.15;4.63;;;38.80;34.00;;;;;;6245810;22;92831;-86
2023/05/28 08:20:29;;;;;;;7.43;4.18;;;39.10;33.70;;;;;;6247080;22;92693;-86
2023/05/28 08:22:55;;;;;;;10.63;4.30;;;38.20;33.60;;;;;;6247249;22;91983;-85
2023/05/28 08:25:21;;;;;;;9.45;5.55;;;38.20;34.20;;;;;;6246353;22;93404;-86
2023/05/28 08:27:46;;;;;;;6.72;4.10;;;38.50;33.90;;;;;;6245026;22;93058;-85
2023/05/28 08:30:12;;;;;;;8.75;3.90;;;38.80;34.10;;;;;;6246085;22;92476;-85
2023/05/28 08:32:38;;;;;;;8.02;4.30;;;38.90;33.50;;;;;;6247314;22;92598;-85
2023/05/28 08:35:04;;;;;;;9.98;6.47;;;39.20;33.10;;;;;;6246324;22;94449;-84
2023/05/28 08:37:30;;;;;;;8.90;6.28;;;39.20;33.20;;;;;;6245328;22;94230;-84
2023/05/28 08:39:55;;;;;;;9.48;4.57;;;39.10;34.40;;;;;;6246261;22;92119;-82
2023/05/28 08:42:21;;;;;;;7.22;4.13;;;38.70;34.10;;;;;;6216274;22;93076;-82
2023/05/28 08:44:47;;;;;;;8.43;4.65;;;38.80;34.10;;;;;;6247111;22;93003;-82
2023/05/28 08:47:14;;;;;;;9.90;5.30;;;39.30;34.00;;;;;;6245888;22;93642;-82
2023/05/28 08:49:49;;;;;;;9.00;5.00;;;38.70;33.50;;;;;;6245986;22;92096;-83
2023/05/28 08:52:17;;;;;;;13.27;5.97;;;39.10;32.90;;;;;;6247133;22;91381;-83
2023/05/28 08:54:43;;;;;;;12.23;5.03;;;39.40;33.00;;;;;;6245583;22;93139;-83
2023/05/28 08:57:10;;;;;;;12.18;5.78;;;39.70;33.30;;;;;;6245195;22;93307;-82
2023/05/28 08:59:36;;;;;;;9.23;4.28;;;40.20;32.60;;;;;;6244020;22;93268;-82
2023/05/28 09:02:03;;;;;;;10.80;4.93;;;40.70;32.70;;;;;;6248294;22;92596;-82
2023/05/28 09:04:29;;;;;;;8.27;4.80;;;40.90;32.60;;;;;;6247969;22;92570;-82
2023/05/28 09:06:55;;;;;;;13.80;5.43;;;40.90;32.30;;;;;;6246955;22;92492;-82
2023/05/28 09:09:21;;;;;;;12.82;5.05;;;40.40;32.30;;;;;;6249018;22;92369;-82
2023/05/28 09:11:47;;;;;;;7.97;4.10;;;40.80;32.10;;;;;;6249352;22;92650;-82
2023/05/28 09:14:13;;;;;;;9.27;4.60;;;41.10;33.10;;;;;;6246043;22;93075;-82
2023/05/28 09:16:43;;;;;;;7.97;5.65;;;41.50;32.10;;;;;;6248769;22;92338;-82
2023/05/28 09:19:10;;;;;;;7.90;4.53;;;41.50;32.00;;;;;;6249335;22;92252;-82
2023/05/28 09:21:37;;;;;;;7.47;4.75;;;41.60;32.20;;;;;;6248978;22;92422;-82
2023/05/28 09:24:05;;;;;;;6.55;4.28;;;41.10;31.70;;;;;;6247589;22;94480;-82
2023/05/28 09:26:32;;;;;;;12.05;5.50;;;41.30;32.00;;;;;;6249251;22;93126;-82
2023/05/28 09:28:59;;;;;;;10.88;5.60;;;40.80;32.10;;;;;;6250233;22;92692;-81
2023/05/28 09:31:32;;;;;;;6.65;4.13;;;40.90;32.40;;;;;;6246166;22;92018;-82
2023/05/28 09:34:03;;;;;;;15.48;7.10;;;41.30;32.30;;;;;;6249613;22;93506;-82
2023/05/28 09:36:30;;;;;;;10.18;4.53;;;41.40;32.60;;;;;;6250711;22;92246;-82
2023/05/28 09:38:56;;;;;;;11.07;6.15;;;41.20;32.00;;;;;;6249844;22;92382;-82
2023/05/28 09:41:24;;;;;;;10.15;4.82;;;41.40;32.00;;;;;;6250752;22;91697;-81
2023/05/28 09:44:00;;;;;;;10.32;5.03;;;41.80;32.40;;;;;;6250134;22;92613;-82
2023/05/28 09:46:30;;;;;;;13.38;8.27;;;41.10;32.50;;;;;;6246794;22;93280;-82
2023/05/28 09:48:56;;;;;;;9.40;5.63;;;41.10;32.50;;;;;;6248612;22;93251;-82
2023/05/28 09:51:26;;;;;;;7.18;5.22;;;41.20;32.00;;;;;;6250825;22;92374;-82
2023/05/28 09:53:56;;;;;;;9.95;4.50;;;40.20;32.20;;;;;;6247312;22;93023;-81
2023/05/28 09:56:29;;;;;;;10.35;5.88;;;39.80;34.20;;;;;;6249756;22;92448;-82
2023/05/28 09:58:57;;;;;;;7.97;5.57;;;39.30;34.20;;;;;;6250704;22;92606;-81
2023/05/28 10:01:26;;;;;;;10.15;4.35;;;38.70;35.20;;;;;;6220370;22;92711;-82
2023/05/28 10:04:10;;;;;;;9.20;4.50;;;37.80;35.40;;;;;;6249282;22;93076;-80
2023/05/28 10:06:38;;;;;;;11.98;4.43;;;36.70;35.20;;;;;;6249624;22;93026;-80
2023/05/28 10:09:05;;;;;;;12.52;5.97;;;35.50;38.50;;;;;;6249767;22;92418;-80
2023/05/28 10:11:41;;;;;;;9.10;4.05;;;34.80;39.60;;;;;;6250288;22;91994;-80
2023/05/28 10:14:08;;;;;;;7.55;4.63;;;34.10;38.80;;;;;;6249276;22;94081;-80
2023/05/28 10:16:34;;;;;;;10.90;3.92;;;33.20;40.30;;;;;;6246022;22;93751;-80
2023/05/28 10:19:01;;;;;;;7.25;3.25;;;32.40;42.00;;;;;;6247008;22;92511;-79
2023/05/28 10:21:27;;;;;;;8.55;3.80;;;32.00;42.80;;;;;;6250014;22;92364;-80
2023/05/28 10:23:54;;;;;;;11.75;3.90;;;31.70;44.10;;;;;;6246785;22;93817;-79
2023/05/28 10:26:21;;;;;;;8.90;3.85;;;31.30;43.80;;;;;;6222028;22;94356;-79
2023/05/28 10:28:54;;;;;;;6.43;2.75;;;31.00;44.00;;;;;;6248959;22;91978;-80
2023/05/28 10:31:22;;;;;;;10.20;3.50;;;30.60;43.10;;;;;;6250564;22;91478;-80
2023/05/28 10:33:48;;;;;;;9.05;3.40;;;30.30;44.90;;;;;;6246336;22;93183;-79
2023/05/28 10:36:15;;;;;;;7.28;3.30;;;30.20;45.60;;;;;;6249643;22;92021;-79
2023/05/28 10:38:46;;;;;;;8.30;3.78;;;30.10;44.60;;;;;;6248692;22;93606;-80
2023/05/28 10:41:19;;;;;;;8.88;3.13;;;29.60;45.70;;;;;;6222244;22;92405;-81
2023/05/28 10:43:47;;;;;;;8.18;3.80;;;29.60;46.80;;;;;;6249904;22;93409;-81
2023/05/28 10:46:24;;;;;;;8.63;3.25;;;29.60;46.90;;;;;;6248669;22;92693;-80
2023/05/28 10:49:05;;;;;;;8.88;3.65;;;29.70;46.10;;;;;;6248534;22;92440;-81
2023/05/28 10:51:55;;;;;;;5.97;3.20;;;29.30;46.70;;;;;;6249942;22;91965;-80
2023/05/28 10:54:29;;;;;;;7.38;3.15;;;29.30;46.60;;;;;;6249515;22;93024;-80
2023/05/28 10:57:19;;;;;;;10.70;3.25;;;29.40;48.00;;;;;;6249651;22;91833;-80
2023/05/28 11:00:00;;;;;;;8.80;4.18;;;29.40;46.30;;;;;;6248615;22;92302;-80
2023/05/28 11:02:28;;;;;;;11.40;3.17;;;29.40;46.90;;;;;;6249528;22;92072;-80
2023/05/28 11:04:55;;;;;;;9.05;4.05;;;29.40;48.50;;;;;;6247964;22;96049;-80
2023/05/28 11:07:33;;;;;;;7.28;3.30;;;29.30;47.60;;;;;;6249693;22;93118;-80
2023/05/28 11:09:59;;;;;;;13.20;3.58;;;29.10;48.30;;;;;;6249658;22;92329;-80
2023/05/28 11:12:30;;;;;;;6.13;3.05;;;29.10;48.30;;;;;;6248560;22;92692;-80
2023/05/28 11:14:56;;;;;;;6.65;3.08;;;29.20;48.20;;;;;;6246189;22;92701;-80
2023/05/28 11:17:22;;;;;;;8.13;3.40;;;29.20;48.80;;;;;;6218327;22;94330;-80
2023/05/28 11:19:53;;;;;;;6.85;3.25;;;29.00;48.80;;;;;;6246313;22;92032;-80
2023/05/28 11:22:20;;;;;;;11.95;4.05;;;29.20;49.70;;;;;;6247897;22;92110;-80
2023/05/28 11:24:59;;;;;;;10.27;3.28;;;29.30;47.00;;;;;;6246698;22;93257;-80
2023/05/28 11:27:30;;;;;;;10.10;3.58;;;29.30;47.60;;;;;;6220290;22;94980;-80
2023/05/28 11:29:58;;;;;;;7.90;3.08;;;29.30;49.10;;;;;;6242414;22;93587;-82
2023/05/28 11:32:25;;;;;;;11.18;3.33;;;29.30;47.90;;;;;;6245237;22;92909;-83
2023/05/28 11:34:52;;;;;;;10.52;2.78;;;29.40;48.30;;;;;;6245945;22;92981;-83
2023/05/28 11:37:26;;;;;;;6.53;3.33;;;29.40;47.60;;;;;;6246720;22;92994;-83
2023/05/28 11:39:53;;;;;;;9.52;3.08;;;29.40;48.40;;;;;;6248358;22;92051;-82
2023/05/28 11:42:19;;;;;;;8.90;3.05;;;29.40;49.30;;;;;;6247209;22;92051;-83
2023/05/28 11:44:46;;;;;;;7.53;3.05;;;29.40;48.50;;;;;;6245848;22;93587;-82
2023/05/28 11:47:13;;;;;;;10.43;3.28;;;29.40;48.20;;;;;;6245270;22;93443;-84
2023/05/28 11:49:39;;;;;;;8.30;3.17;;;29.40;48.30;;;;;;6245824;22;92576;-83
2023/05/28 11:52:09;;;;;;;7.82;3.20;;;29.40;47.50;;;;;;6247410;22;92406;-82
2023/05/28 11:54:34;;;;;;;6.50;3.35;;;29.20;47.80;;;;;;6245511;22;94940;-82
2023/05/28 11:57:03;;;;;;;9.13;3.17;;;29.20;48.40;;;;;;6247031;22;94093;-83
2023/05/28 11:59:29;;;;;;;7.82;3.20;;;29.00;47.60;;;;;;6247824;22;92429;-84
2023/05/28 12:02:12;;;;;;;8.48;2.40;;;28.90;48.90;;;;;;6246222;22;92518;-83
2023/05/28 12:04:37;;;;;;;6.60;2.92;;;28.90;49.00;;;;;;6241758;22;92607;-80
2023/05/28 12:07:03;;;;;;;4.85;2.33;;;29.10;48.30;;;;;;6245346;22;92488;-80
2023/05/28 12:09:29;;;;;;;11.00;3.30;;;29.10;49.50;;;;;;6246898;22;92443;-80
2023/05/28 12:12:11;;;;;;;7.10;2.65;;;29.00;47.90;;;;;;6247767;22;91325;-80
2023/05/28 12:14:36;;;;;;;;;;;29.00;48.90;;;;;;6247453;22;93019;-80
2023/05/28 12:17:09;;;;;;;8.32;2.75;;;29.20;47.20;;;;;;6249046;22;92619;-80
2023/05/28 12:19:36;;;;;;;8.40;2.92;;;29.30;47.60;;;;;;6244434;22;93214;-80
2023/05/28 12:22:04;;;;;;;7.72;2.75;;;29.00;47.00;;;;;;6247295;22;92142;-79
2023/05/28 12:24:30;;;;;;;7.70;2.90;;;28.90;48.50;;;;;;6246834;22;93410;-80
2023/05/28 12:26:56;;;;;;;5.40;2.65;;;28.90;48.20;;;;;;6246516;22;92462;-79
2023/05/28 12:29:22;;;;;;;7.13;2.60;;;28.90;47.90;;;;;;6248577;22;92035;-78
2023/05/28 12:31:57;;;;;;;6.20;2.67;;;29.10;49.50;;;;;;6249778;22;92275;-78
2023/05/28 12:34:23;;;;;;;6.63;2.20;;;29.20;48.00;;;;;;6246465;22;93579;-79
2023/05/28 12:36:48;;;;;;;6.65;2.42;;;29.30;46.60;;;;;;6249189;22;93207;-79
2023/05/28 12:39:14;;;;;;;6.93;2.60;;;29.30;47.10;;;;;;6248876;22;92920;-79
2023/05/28 12:41:40;;;;;;;7.10;2.60;;;29.30;47.50;;;;;;6222304;22;92058;-78
2023/05/28 12:44:05;;;;;;;6.47;2.65;;;29.30;46.30;;;;;;6247718;22;94005;-80
2023/05/28 12:46:31;;;;;;;9.48;2.80;;;29.50;47.90;;;;;;6249202;22;93069;-80
2023/05/28 12:48:57;;;;;;;7.07;2.65;;;29.50;47.40;;;;;;6249774;22;92647;-80
2023/05/28 12:51:22;;;;;;;8.52;3.03;;;29.50;45.40;;;;;;6240364;22;92776;-80
2023/05/28 12:53:48;;;;;;;8.48;2.80;;;29.40;46.50;;;;;;6247909;22;92725;-80
2023/05/28 12:56:14;;;;;;;9.23;2.20;;;29.50;45.20;;;;;;6249428;22;92027;-80
2023/05/28 12:58:39;;;;;;;4.90;2.35;;;29.40;45.50;;;;;;6249415;22;92015;-80
2023/05/28 13:01:05;;;;;;;4.72;2.25;;;29.40;45.30;;;;;;6249847;22;91911;-80
2023/05/28 13:03:32;;;;;;;9.48;2.97;;;29.40;44.90;;;;;;6247448;22;93307;-79
2023/05/28 13:05:58;;;;;;;4.82;1.80;;;29.30;42.80;;;;;;6245986;22;92674;-80
2023/05/28 13:08:23;;;;;;;6.50;2.05;;;29.10;43.40;;;;;;6247464;22;93039;-79
2023/05/28 13:10:49;;;;;;;6.68;1.98;;;29.20;45.80;;;;;;6248489;22;92013;-79
2023/05/28 13:13:14;;;;;;;5.88;2.65;;;29.40;46.10;;;;;;6249526;22;92956;-79
2023/05/28 13:15:40;;;;;;;9.77;2.63;;;29.50;45.00;;;;;;6249705;22;92372;-79
2023/05/28 13:18:06;;;;;;;5.65;2.50;;;29.60;44.10;;;;;;6248471;22;92414;-79
2023/05/28 13:20:32;;;;;;;6.50;2.08;;;29.60;44.70;;;;;;6248203;22;92361;-79
2023/05/28 13:22:58;;;;;;;9.68;2.45;;;29.60;44.80;;;;;;6245766;22;92657;-79
2023/05/28 13:25:24;;;;;;;5.90;2.05;;;29.60;44.60;;;;;;6219526;22;94893;-80
2023/05/28 13:27:50;;;;;;;5.93;2.22;;;29.60;44.70;;;;;;6242500;22;92366;-79
2023/05/28 13:30:16;;;;;;;7.88;1.92;;;29.50;44.40;;;;;;6236716;22;92020;-79
2023/05/28 13:32:42;;;;;;;7.40;2.13;;;29.50;44.70;;;;;;6206094;22;97427;-80
2023/05/28 13:35:11;;;;;;;6.30;2.58;;;29.40;44.40;;;;;;6235732;22;93648;-79
2023/05/28 13:37:37;;;;;;;7.72;1.85;;;29.50;43.10;;;;;;6238667;22;92231;-82
2023/05/28 13:40:07;;;;;;;5.95;2.85;;;29.60;43.90;;;;;;6238768;22;92714;-82
2023/05/28 13:42:34;;;;;;;5.25;3.33;;;29.70;44.10;;;;;;6233644;22;92778;-82
2023/05/28 13:45:00;;;;;;;7.18;2.65;;;29.70;44.00;;;;;;6233302;22;92635;-81
2023/05/28 13:47:26;;;;;;;5.25;2.33;;;29.60;43.70;;;;;;6212872;22;92718;-81
2023/05/28 13:49:52;;;;;;;7.60;3.13;;;29.70;42.30;;;;;;6212384;22;91456;-80
2023/05/28 13:52:17;;;;;;;7.70;1.88;;;29.80;43.60;;;;;;6235259;22;93607;-80
2023/05/28 13:54:43;;;;;;;7.43;2.47;;;30.00;42.40;;;;;;6246269;22;92273;-81
2023/05/28 13:57:10;;;;;;;7.80;2.58;;;29.90;40.90;;;;;;6247220;22;93021;-79
2023/05/28 13:59:35;;;;;;;9.32;2.85;;;30.00;43.50;;;;;;6236644;22;92629;-83
2023/05/28 14:02:02;;;;;;;4.35;1.50;;;30.00;40.60;;;;;;6234444;22;93674;-82
2023/05/28 14:04:27;;;;;;;4.15;2.13;;;29.90;43.50;;;;;;6234599;22;93017;-81
2023/05/28 14:06:53;;;;;;;5.57;2.10;;;29.90;41.60;;;;;;6207949;22;92394;-80
2023/05/28 14:11:57;;;;;;;4.32;2.03;;;29.90;42.10;;;;;;6170823;22;1264934;-82
2023/05/28 14:14:23;;;;;;;5.18;1.95;;;30.00;43.20;;;;;;6241946;22;93321;-82
2023/05/28 14:16:49;;;;;;;6.13;2.25;;;30.00;43.70;;;;;;6273987;22;92082;-82
2023/05/28 14:19:15;;;;;;;4.80;1.92;;;30.00;41.20;;;;;;6273444;22;92685;-82
2023/05/28 14:21:41;;;;;;;5.07;2.45;;;29.90;41.10;;;;;;6272720;22;94301;-83
2023/05/28 14:24:07;;;;;;;7.25;2.10;;;29.70;40.00;;;;;;6273000;22;94175;-83
2023/05/28 14:26:33;;;;;;;8.30;2.55;;;29.70;43.50;;;;;;6272105;22;92701;-82
2023/05/28 14:28:59;;;;;;;7.22;2.42;;;29.80;43.20;;;;;;6246325;22;92218;-81
2023/05/28 14:31:25;;;;;;;5.35;1.63;;;29.70;43.50;;;;;;6273047;22;93358;-82
2023/05/28 14:33:50;;;;;;;7.57;2.17;;;29.70;43.00;;;;;;6273197;22;92639;-82
2023/05/28 14:36:16;;;;;;;4.85;1.77;;;29.60;44.30;;;;;;6273619;22;92324;-82
2023/05/28 14:38:42;;;;;;;5.68;2.55;;;29.50;42.20;;;;;;6273894;22;91711;-82
2023/05/28 14:41:07;;;;;;;6.97;2.55;;;29.30;44.50;;;;;;6273003;22;93579;-82
2023/05/28 14:43:33;;;;;;;5.38;2.65;;;29.30;42.90;;;;;;6273292;22;93870;-82
2023/05/28 14:45:59;;;;;;;6.05;1.52;;;29.30;42.80;;;;;;6273817;22;93329;-82
2023/05/28 14:48:24;;;;;;;7.90;2.33;;;29.10;46.40;;;;;;6274168;22;92588;-81
2023/05/28 14:50:50;;;;;;;9.63;1.92;;;28.80;44.40;;;;;;6271803;22;92428;-82
2023/05/28 14:53:16;;;;;;;6.45;1.95;;;28.40;43.20;;;;;;6276714;22;92216;-82
2023/05/28 14:55:41;;;;;;;5.20;1.70;;;28.20;44.00;;;;;;6278860;22;92217;-81
2023/05/28 14:58:07;;;;;;;7.03;1.98;;;28.20;43.70;;;;;;6280477;22;92246;-82
2023/05/28 15:00:33;;;;;;;5.05;1.83;;;28.10;44.40;;;;;;6278477;22;93319;-82
2023/05/28 15:02:59;;;;;;;7.72;1.70;;;28.10;43.70;;;;;;6277234;22;92623;-82
2023/05/28 15:05:26;;;;;;;4.38;1.60;;;28.00;44.20;;;;;;6277556;22;92670;-81
2023/05/28 15:07:52;;;;;;;7.13;1.88;;;28.00;44.20;;;;;;6279488;22;92126;-83
2023/05/28 15:10:17;;;;;;;3.97;1.52;;;28.10;44.50;;;;;;6267904;22;93982;-83
2023/05/28 15:12:43;;;;;;;7.40;2.35;;;28.30;43.80;;;;;;6247468;22;94993;-83
2023/05/28 15:15:09;;;;;;;8.18;2.10;;;28.30;44.10;;;;;;6246197;22;92847;-83
2023/05/28 15:17:35;;;;;;;7.68;1.90;;;28.30;43.10;;;;;;6250830;22;92208;-82
2023/05/28 15:20:00;;;;;;;6.65;1.52;;;28.20;42.50;;;;;;6250595;22;92534;-82
2023/05/28 15:22:26;;;;;;;6.90;1.65;;;28.20;43.70;;;;;;6248424;22;93266;-82
2023/05/28 15:24:52;;;;;;;5.97;1.63;;;28.10;43.30;;;;;;6248266;22;92122;-82
2023/05/28 15:27:18;;;;;;;7.43;2.15;;;28.10;44.20;;;;;;6246809;22;91321;-82
2023/05/28 15:29:44;;;;;;;7.60;2.85;;;28.20;43.60;;;;;;6250180;22;93190;-84
2023/05/28 15:32:11;;;;;;;7.00;3.45;;;28.20;43.80;;;;;;6250882;22;92769;-81
2023/05/28 15:34:37;;;;;;;7.90;1.60;;;28.20;42.60;;;;;;6249626;22;92946;-81
2023/05/28 15:37:04;;;;;;;7.30;2.85;;;28.20;43.40;;;;;;6251434;22;92096;-81
2023/05/28 15:39:30;;;;;;;8.52;2.33;;;28.20;43.50;;;;;;6249953;22;92834;-81
2023/05/28 15:42:00;;;;;;;5.63;1.45;;;28.10;43.20;;;;;;6246705;22;92720;-81
2023/05/28 15:44:25;;;;;;;6.90;2.17;;;28.00;43.00;;;;;;6249895;22;92379;-81
2023/05/28 15:46:51;;;;;;;6.68;2.03;;;28.00;41.90;;;;;;6249751;22;93111;-82
2023/05/28 15:49:17;;;;;;;5.50;1.40;;;27.90;42.60;;;;;;6250382;22;95125;-81
2023/05/28 15:51:43;;;;;;;5.88;1.60;;;28.10;44.70;;;;;;6249894;22;92701;-82
2023/05/28 15:54:09;;;;;;;3.85;1.77;;;28.10;43.90;;;;;;6250303;22;92079;-81
2023/05/28 15:56:34;;;;;;;8.45;1.65;;;28.20;43.60;;;;;;6250943;22;92078;-81
2023/05/28 15:59:00;;;;;;;6.18;2.10;;;28.20;42.60;;;;;;6245797;22;93560;-81
2023/05/28 16:01:27;;;;;;;10.15;2.17;;;28.20;43.20;;;;;;6249485;22;93974;-81